Wetterdaten: Woche 16.11.20 - 22.11.20 (KW47)
Datum Zeit Temp. A. Feuchte A. Luftdruck Regen Wind Richtung Taupunkt Windchill Windben
16.11.2020 00:00 7,6 C 82 % 1015,2 hPa 0,0 l/m 0,0 km/h N 4,7 C 7,6 C 2,4 km/h
16.11.2020 01:00 7,4 C 82 % 1015,3 hPa 0,0 l/m 0,0 km/h N 4,5 C 7,4 C 0,0 km/h
16.11.2020 02:00 7,3 C 82 % 1015,0 hPa 0,0 l/m 0,0 km/h N 4,4 C 7,3 C 0,0 km/h
16.11.2020 03:00 6,9 C 83 % 1014,8 hPa 0,0 l/m 0,0 km/h N 4,2 C 6,9 C 0,0 km/h
16.11.2020 04:00 5,4 C 83 % 1015,2 hPa 0,0 l/m 0,0 km/h N 2,7 C 5,4 C 0,0 km/h
16.11.2020 05:00 3,6 C 83 % 1015,7 hPa 0,0 l/m 0,0 km/h N 0,9 C 3,6 C 0,0 km/h
16.11.2020 06:00 2,8 C 83 % 1016,1 hPa 0,0 l/m 0,0 km/h N 0,3 C 2,8 C 0,0 km/h
16.11.2020 07:00 3,9 C 82 % 1016,9 hPa 0,0 l/m 0,0 km/h N 1,2 C 3,9 C 0,0 km/h
16.11.2020 08:00 5,6 C 82 % 1017,3 hPa 0,0 l/m 0,3 km/h N 2,8 C 5,6 C 4,0 km/h
16.11.2020 09:00 6,4 C 82 % 1017,8 hPa 0,0 l/m 0,9 km/h N 3,5 C 6,4 C 6,4 km/h
16.11.2020 10:00 7,8 C 82 % 1018,1 hPa 0,0 l/m 0,5 km/h N 4,8 C 7,8 C 5,2 km/h
16.11.2020 11:00 8,9 C 82 % 1018,4 hPa 0,0 l/m 0,0 km/h N 6,0 C 8,9 C 0,0 km/h
16.11.2020 12:00 9,3 C 82 % 1018,4 hPa 0,0 l/m 0,1 km/h N 6,4 C 9,3 C 1,6 km/h
16.11.2020 13:00 9,6 C 82 % 1018,6 hPa 0,0 l/m 0,1 km/h N 6,7 C 9,6 C 1,6 km/h
16.11.2020 14:00 11,1 C 78 % 1019,0 hPa 0,0 l/m 7,3 km/h N 7,4 C 10,4 C 23,7 km/h
16.11.2020 15:00 11,0 C 77 % 1019,5 hPa 0,0 l/m 7,3 km/h N 7,0 C 10,2 C 22,5 km/h
16.11.2020 16:00 11,1 C 74 % 1020,2 hPa 0,0 l/m 6,8 km/h N 6,6 C 10,6 C 20,9 km/h
16.11.2020 17:00 11,1 C 72 % 1020,9 hPa 0,0 l/m 5,5 km/h N 6,3 C 11,0 C 18,9 km/h
16.11.2020 18:00 10,9 C 73 % 1021,5 hPa 0,0 l/m 4,8 km/h N 6,3 C 10,9 C 17,7 km/h
16.11.2020 19:00 11,0 C 73 % 1021,9 hPa 0,0 l/m 6,2 km/h N 6,4 C 11,0 C 20,1 km/h
16.11.2020 20:00 11,0 C 73 % 1022,3 hPa 0,0 l/m 4,9 km/h N 6,3 C 11,0 C 16,1 km/h
16.11.2020 21:00 10,8 C 74 % 1023,0 hPa 0,0 l/m 5,7 km/h N 6,3 C 10,7 C 18,5 km/h
16.11.2020 22:00 10,8 C 73 % 1023,3 hPa 0,0 l/m 5,6 km/h N 6,2 C 10,7 C 20,5 km/h
16.11.2020 23:00 10,6 C 73 % 1023,5 hPa 0,0 l/m 4,1 km/h N 5,9 C 10,6 C 13,7 km/h
17.11.2020 00:00 10,5 C 74 % 1023,8 hPa 0,0 l/m 3,5 km/h N 6,1 C 10,5 C 12,9 km/h
17.11.2020 01:00 10,9 C 73 % 1024,0 hPa 0,0 l/m 5,3 km/h N 6,2 C 10,9 C 16,5 km/h
17.11.2020 02:00 10,8 C 74 % 1024,3 hPa 0,0 l/m 4,4 km/h N 6,2 C 10,8 C 16,5 km/h
17.11.2020 03:00 10,4 C 75 % 1024,6 hPa 0,0 l/m 3,3 km/h N 6,2 C 10,4 C 14,5 km/h
17.11.2020 04:00 10,1 C 77 % 1024,7 hPa 0,0 l/m 2,3 km/h N 6,3 C 10,1 C 10,9 km/h
17.11.2020 05:00 10,4 C 76 % 1025,1 hPa 0,0 l/m 2,6 km/h N 6,3 C 10,4 C 13,3 km/h
17.11.2020 06:00 10,7 C 74 % 1025,6 hPa 0,0 l/m 1,4 km/h N 6,3 C 10,7 C 11,3 km/h
17.11.2020 07:00 10,8 C 74 % 1026,4 hPa 0,0 l/m 4,0 km/h N 6,3 C 10,8 C 14,9 km/h
17.11.2020 08:00 11,0 C 73 % 1027,4 hPa 0,0 l/m 5,4 km/h N 6,3 C 11,0 C 15,3 km/h
17.11.2020 09:00 11,3 C 72 % 1027,9 hPa 0,0 l/m 4,5 km/h N 6,4 C 11,3 C 14,1 km/h
17.11.2020 10:00 12,3 C 69 % 1028,3 hPa 0,0 l/m 5,3 km/h N 6,6 C 12,2 C 18,9 km/h
17.11.2020 11:00 12,6 C 67 % 1028,5 hPa 0,0 l/m 4,3 km/h N 6,5 C 12,6 C 16,5 km/h
17.11.2020 12:00 12,8 C 66 % 1028,3 hPa 0,0 l/m 4,3 km/h N 6,7 C 12,8 C 14,9 km/h
17.11.2020 13:00 13,0 C 64 % 1028,3 hPa 0,0 l/m 5,9 km/h N 6,4 C 12,7 C 17,3 km/h
17.11.2020 14:00 12,3 C 65 % 1028,3 hPa 0,0 l/m 6,9 km/h N 5,8 C 11,8 C 18,5 km/h
17.11.2020 15:00 12,5 C 63 % 1028,4 hPa 0,0 l/m 3,2 km/h N 5,7 C 12,5 C 12,9 km/h
17.11.2020 16:00 11,3 C 67 % 1028,8 hPa 0,0 l/m 2,6 km/h N 5,3 C 11,3 C 12,9 km/h
17.11.2020 17:00 9,9 C 70 % 1029,2 hPa 0,0 l/m 0,0 km/h N 4,8 C 9,9 C 0,8 km/h
17.11.2020 18:00 8,1 C 75 % 1029,4 hPa 0,0 l/m 0,0 km/h N 3,9 C 8,1 C 0,0 km/h
17.11.2020 19:00 6,6 C 78 % 1029,7 hPa 0,0 l/m 0,0 km/h N 3,1 C 6,6 C 0,0 km/h
17.11.2020 20:00 6,0 C 81 % 1029,8 hPa 0,0 l/m 0,0 km/h N 2,9 C 6,0 C 0,0 km/h
17.11.2020 21:00 5,4 C 82 % 1029,9 hPa 0,0 l/m 0,0 km/h N 2,5 C 5,4 C 0,0 km/h
17.11.2020 22:00 4,9 C 82 % 1029,8 hPa 0,0 l/m 0,0 km/h N 2,1 C 4,9 C 0,0 km/h
17.11.2020 23:00 4,5 C 82 % 1030,1 hPa 0,0 l/m 0,0 km/h N 1,7 C 4,5 C 0,0 km/h
18.11.2020 00:00 4,2 C 82 % 1030,1 hPa 0,0 l/m 0,0 km/h N 1,4 C 4,2 C 0,0 km/h
18.11.2020 01:00 4,2 C 82 % 1030,1 hPa 0,0 l/m 0,0 km/h N 1,4 C 4,2 C 0,0 km/h
18.11.2020 02:00 4,6 C 82 % 1030,0 hPa 0,0 l/m 0,0 km/h N 1,8 C 4,6 C 0,0 km/h
18.11.2020 03:00 4,3 C 82 % 1029,9 hPa 0,0 l/m 0,0 km/h N 1,5 C 4,3 C 0,0 km/h
18.11.2020 04:00 3,9 C 82 % 1030,1 hPa 0,0 l/m 0,0 km/h N 1,1 C 3,9 C 0,0 km/h
18.11.2020 05:00 3,5 C 82 % 1030,2 hPa 0,0 l/m 0,0 km/h N 0,7 C 3,5 C 0,0 km/h
18.11.2020 06:00 3,7 C 81 % 1030,4 hPa 0,0 l/m 0,0 km/h N 0,7 C 3,7 C 0,0 km/h
18.11.2020 07:00 3,0 C 82 % 1030,8 hPa 0,0 l/m 0,0 km/h N 0,2 C 3,0 C 0,0 km/h
18.11.2020 08:00 3,5 C 82 % 1031,0 hPa 0,0 l/m 0,0 km/h N 0,8 C 3,5 C 0,0 km/h
18.11.2020 09:00 5,8 C 82 % 1030,8 hPa 0,0 l/m 0,0 km/h N 2,9 C 5,8 C 0,4 km/h
18.11.2020 10:00 7,2 C 82 % 1030,4 hPa 0,0 l/m 0,2 km/h N 4,4 C 7,2 C 3,6 km/h
18.11.2020 11:00 8,4 C 81 % 1030,1 hPa 0,0 l/m 0,4 km/h N 5,4 C 8,4 C 4,0 km/h
18.11.2020 12:00 9,8 C 81 % 1029,4 hPa 0,0 l/m 0,1 km/h N 6,6 C 9,8 C 3,2 km/h
18.11.2020 13:00 11,1 C 77 % 1028,8 hPa 0,0 l/m 0,1 km/h N 7,3 C 11,1 C 1,2 km/h
18.11.2020 14:00 12,2 C 74 % 1028,2 hPa 0,0 l/m 0,0 km/h N 7,7 C 12,2 C 0,8 km/h
18.11.2020 15:00 12,4 C 71 % 1027,9 hPa 0,0 l/m 0,0 km/h N 7,3 C 12,4 C 0,0 km/h
18.11.2020 16:00 10,6 C 73 % 1027,7 hPa 0,0 l/m 0,0 km/h N 6,0 C 10,6 C 0,0 km/h
18.11.2020 17:00 7,8 C 77 % 1027,5 hPa 0,0 l/m 0,0 km/h N 4,1 C 7,8 C 0,0 km/h
18.11.2020 18:00 5,8 C 80 % 1027,3 hPa 0,0 l/m 0,0 km/h N 2,6 C 5,8 C 0,0 km/h
18.11.2020 19:00 4,5 C 81 % 1027,1 hPa 0,0 l/m 0,0 km/h N 1,5 C 4,5 C 0,0 km/h
18.11.2020 20:00 3,7 C 82 % 1026,7 hPa 0,0 l/m 0,0 km/h N 0,9 C 3,7 C 0,0 km/h
18.11.2020 21:00 3,1 C 82 % 1026,2 hPa 0,0 l/m 0,0 km/h N 0,4 C 3,1 C 0,0 km/h
18.11.2020 22:00 2,6 C 82 % 1025,8 hPa 0,0 l/m 0,0 km/h N -0,1 C 2,6 C 0,0 km/h
18.11.2020 23:00 2,0 C 82 % 1025,5 hPa 0,0 l/m 0,0 km/h N -0,7 C 2,0 C 0,0 km/h
19.11.2020 00:00 1,6 C 82 % 1025,2 hPa 0,0 l/m 0,0 km/h N -1,1 C 1,6 C 0,0 km/h
19.11.2020 01:00 1,5 C 82 % 1024,9 hPa 0,0 l/m 0,0 km/h N -1,3 C 1,5 C 0,0 km/h
19.11.2020 02:00 1,1 C 82 % 1024,6 hPa 0,0 l/m 0,0 km/h N -1,6 C 1,1 C 0,0 km/h
19.11.2020 03:00 1,0 C 82 % 1024,5 hPa 0,0 l/m 0,0 km/h N -1,8 C 1,0 C 0,0 km/h
19.11.2020 04:00 0,6 C 82 % 1024,7 hPa 0,0 l/m 0,0 km/h N -2,2 C 0,6 C 0,0 km/h
19.11.2020 05:00 1,1 C 82 % 1024,8 hPa 0,0 l/m 0,0 km/h N -1,6 C 1,1 C 0,0 km/h
19.11.2020 06:00 3,1 C 82 % 1024,8 hPa 0,0 l/m 0,0 km/h N 0,4 C 3,1 C 0,0 km/h
19.11.2020 07:00 4,3 C 82 % 1024,8 hPa 0,0 l/m 0,0 km/h N 1,6 C 4,3 C 0,0 km/h
19.11.2020 08:00 4,8 C 82 % 1024,8 hPa 0,0 l/m 0,0 km/h N 1,9 C 4,8 C 1,2 km/h
19.11.2020 09:00 4,7 C 82 % 1024,5 hPa 0,0 l/m 0,0 km/h N 1,9 C 4,7 C 2,4 km/h
19.11.2020 10:00 4,9 C 82 % 1024,5 hPa 0,0 l/m 0,1 km/h N 2,1 C 4,9 C 4,0 km/h
19.11.2020 11:00 5,5 C 82 % 1023,9 hPa 0,0 l/m 0,2 km/h N 2,7 C 5,5 C 5,6 km/h
19.11.2020 12:00 5,9 C 82 % 1022,7 hPa 0,0 l/m 0,2 km/h N 3,1 C 5,9 C 4,4 km/h
19.11.2020 13:00 6,5 C 82 % 1021,7 hPa 0,0 l/m 0,2 km/h N 3,7 C 6,5 C 4,0 km/h
19.11.2020 14:00 7,0 C 81 % 1021,4 hPa 0,0 l/m 0,0 km/h N 4,1 C 7,0 C 0,8 km/h
19.11.2020 15:00 6,7 C 82 % 1021,4 hPa 0,0 l/m 0,0 km/h N 3,8 C 6,7 C 0,8 km/h
19.11.2020 16:00 6,3 C 82 % 1021,2 hPa 0,0 l/m 0,0 km/h N 3,5 C 6,3 C 0,8 km/h
19.11.2020 17:00 6,3 C 82 % 1021,1 hPa 0,0 l/m 0,0 km/h N 3,4 C 6,3 C 0,0 km/h
19.11.2020 18:00 6,1 C 82 % 1021,5 hPa 0,0 l/m 0,0 km/h N 3,3 C 6,1 C 0,0 km/h
19.11.2020 19:00 6,1 C 82 % 1022,1 hPa 0,8 l/m 0,0 km/h N 3,2 C 6,1 C 0,0 km/h
19.11.2020 20:00 6,6 C 82 % 1022,8 hPa 1,0 l/m 2,3 km/h N 3,7 C 6,1 C 8,4 km/h
19.11.2020 21:00 8,4 C 82 % 1023,8 hPa 0,0 l/m 9,0 km/h N 5,4 C 6,5 C 25,4 km/h
19.11.2020 22:00 8,1 C 81 % 1024,1 hPa 0,0 l/m 7,8 km/h N 5,0 C 6,8 C 25,7 km/h
19.11.2020 23:00 8,4 C 78 % 1024,2 hPa 0,3 l/m 8,3 km/h N 4,8 C 7,0 C 24,9 km/h
20.11.2020 00:00 8,5 C 77 % 1024,0 hPa 0,0 l/m 9,1 km/h N 4,7 C 6,5 C 28,2 km/h
20.11.2020 01:00 8,6 C 77 % 1023,8 hPa 0,0 l/m 9,3 km/h N 4,8 C 6,5 C 27,0 km/h
20.11.2020 02:00 8,4 C 77 % 1024,0 hPa 0,0 l/m 7,8 km/h N 4,6 C 7,4 C 24,6 km/h
20.11.2020 03:00 8,4 C 77 % 1023,9 hPa 0,0 l/m 8,2 km/h N 4,5 C 7,1 C 23,7 km/h
20.11.2020 04:00 8,3 C 77 % 1024,2 hPa 0,0 l/m 6,7 km/h N 4,4 C 7,7 C 19,7 km/h
20.11.2020 05:00 8,1 C 78 % 1024,9 hPa 0,0 l/m 3,6 km/h N 4,5 C 8,1 C 15,7 km/h
20.11.2020 06:00 7,3 C 78 % 1026,1 hPa 0,0 l/m 3,0 km/h N 3,7 C 7,3 C 16,1 km/h
20.11.2020 07:00 6,5 C 75 % 1027,1 hPa 0,0 l/m 2,1 km/h N 2,3 C 6,5 C 13,3 km/h
20.11.2020 08:00 6,4 C 74 % 1027,8 hPa 0,0 l/m 2,7 km/h N 2,1 C 6,4 C 14,9 km/h
20.11.2020 09:00 6,3 C 74 % 1028,5 hPa 0,0 l/m 1,9 km/h N 2,0 C 6,3 C 13,3 km/h
20.11.2020 10:00 6,5 C 72 % 1028,9 hPa 0,0 l/m 3,7 km/h N 1,9 C 6,5 C 16,5 km/h
20.11.2020 11:00 6,6 C 67 % 1029,0 hPa 0,0 l/m 5,5 km/h N 0,8 C 6,3 C 21,7 km/h
20.11.2020 12:00 6,8 C 64 % 1028,9 hPa 0,0 l/m 4,8 km/h N 0,4 C 6,7 C 21,8 km/h
20.11.2020 13:00 6,8 C 61 % 1028,8 hPa 0,0 l/m 4,1 km/h N -0,2 C 6,8 C 23,3 km/h
20.11.2020 14:00 6,7 C 60 % 1029,1 hPa 0,0 l/m 4,0 km/h N -0,6 C 6,7 C 22,1 km/h
20.11.2020 15:00 6,5 C 61 % 1029,6 hPa 0,0 l/m 2,3 km/h N -0,5 C 6,5 C 15,3 km/h
20.11.2020 16:00 6,4 C 62 % 1030,4 hPa 0,0 l/m 2,1 km/h N -0,5 C 6,4 C 15,3 km/h
20.11.2020 17:00 6,2 C 63 % 1031,1 hPa 0,0 l/m 1,4 km/h N -0,3 C 6,2 C 12,1 km/h
20.11.2020 18:00 5,8 C 66 % 1031,8 hPa 0,0 l/m 1,8 km/h N -0,2 C 5,8 C 11,3 km/h
20.11.2020 19:00 5,3 C 71 % 1032,7 hPa 0,0 l/m 1,0 km/h N 0,3 C 5,3 C 10,9 km/h
20.11.2020 20:00 4,4 C 77 % 1033,5 hPa 0,0 l/m 0,6 km/h N 0,7 C 4,4 C 9,3 km/h
20.11.2020 21:00 3,9 C 80 % 1034,1 hPa 0,0 l/m 0,1 km/h N 0,7 C 3,9 C 6,1 km/h
20.11.2020 22:00 3,4 C 81 % 1034,1 hPa 0,0 l/m 3,3 km/h N 0,4 C 3,4 C 13,7 km/h
20.11.2020 23:00 2,8 C 82 % 1034,5 hPa 0,0 l/m 1,4 km/h N -0,0 C 2,8 C 8,8 km/h
21.11.2020 00:00 2,5 C 82 % 1034,8 hPa 0,0 l/m 3,0 km/h N -0,2 C 2,5 C 10,9 km/h
21.11.2020 01:00 2,2 C 82 % 1035,1 hPa 0,0 l/m 1,7 km/h N -0,5 C 2,2 C 9,3 km/h
21.11.2020 02:00 1,8 C 82 % 1035,8 hPa 0,0 l/m 1,0 km/h N -0,9 C 1,8 C 8,9 km/h
21.11.2020 03:00 1,4 C 82 % 1036,2 hPa 0,0 l/m 0,2 km/h N -1,4 C 1,4 C 3,2 km/h
21.11.2020 04:00 0,8 C 83 % 1036,5 hPa 0,0 l/m 0,0 km/h N -1,8 C 0,8 C 1,2 km/h
21.11.2020 05:00 0,7 C 83 % 1036,9 hPa 0,0 l/m 0,5 km/h N -1,9 C 0,7 C 7,2 km/h
21.11.2020 06:00 0,6 C 83 % 1037,2 hPa 0,0 l/m 0,4 km/h N -1,9 C 0,6 C 5,6 km/h
21.11.2020 07:00 0,8 C 83 % 1037,3 hPa 0,0 l/m 1,4 km/h N -1,8 C 0,8 C 9,3 km/h
21.11.2020 08:00 1,6 C 83 % 1037,5 hPa 0,0 l/m 2,0 km/h N -1,1 C 1,6 C 8,9 km/h
21.11.2020 09:00 2,3 C 82 % 1037,7 hPa 0,0 l/m 1,4 km/h N -0,5 C 2,3 C 11,3 km/h
21.11.2020 10:00 3,6 C 77 % 1037,6 hPa 0,0 l/m 0,6 km/h N 0,0 C 3,6 C 6,8 km/h
21.11.2020 11:00 4,6 C 71 % 1037,3 hPa 0,0 l/m 0,7 km/h N -0,2 C 4,6 C 7,2 km/h
21.11.2020 12:00 5,5 C 66 % 1036,7 hPa 0,0 l/m 0,2 km/h N -0,4 C 5,5 C 4,0 km/h
21.11.2020 13:00 6,0 C 61 % 1036,1 hPa 0,0 l/m 0,5 km/h N -1,0 C 6,0 C 5,2 km/h
21.11.2020 14:00 6,3 C 58 % 1035,3 hPa 0,0 l/m 0,1 km/h N -1,5 C 6,3 C 1,2 km/h
21.11.2020 15:00 6,4 C 61 % 1035,1 hPa 0,0 l/m 0,0 km/h N -0,6 C 6,4 C 0,0 km/h
21.11.2020 16:00 4,9 C 68 % 1035,2 hPa 0,0 l/m 0,0 km/h N -0,6 C 4,9 C 0,0 km/h
21.11.2020 17:00 2,9 C 72 % 1035,3 hPa 0,0 l/m 0,0 km/h N -1,7 C 2,9 C 0,0 km/h
21.11.2020 18:00 0,6 C 76 % 1035,5 hPa 0,0 l/m 0,0 km/h N -3,2 C 0,6 C 0,0 km/h
21.11.2020 19:00 -0,8 C 80 % 1034,9 hPa 0,0 l/m 0,0 km/h N -3,8 C -0,8 C 0,0 km/h
21.11.2020 20:00 -1,8 C 82 % 1034,8 hPa 0,0 l/m 0,0 km/h N -4,5 C -1,8 C 0,0 km/h
21.11.2020 21:00 -2,1 C 82 % 1034,6 hPa 0,0 l/m 0,0 km/h N -4,7 C -2,1 C 0,0 km/h
21.11.2020 22:00 -2,6 C 83 % 1034,1 hPa 0,0 l/m 0,0 km/h N -5,1 C -2,6 C 0,0 km/h
21.11.2020 23:00 -2,8 C 83 % 1033,9 hPa 0,0 l/m 0,0 km/h N -5,3 C -2,8 C 0,0 km/h
22.11.2020 00:00 -3,1 C 83 % 1033,3 hPa 0,0 l/m 0,0 km/h N -5,6 C -3,1 C 0,0 km/h
22.11.2020 01:00 -3,8 C 83 % 1032,9 hPa 0,0 l/m 0,0 km/h N -6,3 C -3,8 C 0,0 km/h
22.11.2020 02:00 -4,2 C 83 % 1032,6 hPa 0,0 l/m 0,0 km/h N -6,7 C -4,2 C 0,0 km/h
22.11.2020 03:00 -4,6 C 83 % 1032,0 hPa 0,0 l/m 0,0 km/h N -7,0 C -4,6 C 0,0 km/h
22.11.2020 04:00 -4,9 C 83 % 1031,9 hPa 0,0 l/m 0,0 km/h N -7,3 C -4,9 C 0,0 km/h
22.11.2020 05:00 -5,0 C 83 % 1032,0 hPa 0,0 l/m 0,0 km/h N -7,4 C -5,0 C 0,0 km/h
22.11.2020 06:00 -5,3 C 83 % 1032,3 hPa 0,0 l/m 0,0 km/h N -7,7 C -5,3 C 0,0 km/h
22.11.2020 07:00 -5,5 C 83 % 1032,4 hPa 0,0 l/m 0,0 km/h N -7,9 C -5,5 C 0,0 km/h
22.11.2020 08:00 -4,8 C 82 % 1032,3 hPa 0,0 l/m 0,0 km/h N -7,3 C -4,8 C 0,0 km/h
22.11.2020 09:00 -2,7 C 82 % 1031,9 hPa 0,0 l/m 0,0 km/h N -5,4 C -2,7 C 0,0 km/h
22.11.2020 10:00 -1,1 C 82 % 1031,5 hPa 0,0 l/m 0,0 km/h N -3,7 C -1,1 C 0,0 km/h
22.11.2020 11:00 0,2 C 82 % 1030,8 hPa 0,0 l/m 0,0 km/h N -2,5 C 0,2 C 0,0 km/h
22.11.2020 12:00 1,5 C 83 % 1030,1 hPa 0,0 l/m 0,0 km/h N -1,1 C 1,5 C 0,0 km/h
22.11.2020 13:00 3,3 C 79 % 1029,4 hPa 0,0 l/m 0,0 km/h N -0,1 C 3,3 C 0,8 km/h
22.11.2020 14:00 4,6 C 70 % 1028,7 hPa 0,0 l/m 0,0 km/h N -0,4 C 4,6 C 0,0 km/h
22.11.2020 15:00 5,0 C 65 % 1028,4 hPa 0,0 l/m 0,1 km/h N -1,0 C 5,0 C 2,4 km/h
22.11.2020 16:00 4,4 C 66 % 1028,4 hPa 0,0 l/m 0,0 km/h N -1,4 C 4,4 C 0,4 km/h
22.11.2020 17:00 3,1 C 71 % 1028,6 hPa 0,0 l/m 0,0 km/h N -1,7 C 3,1 C 0,0 km/h
22.11.2020 18:00 2,1 C 75 % 1028,8 hPa 0,0 l/m 0,0 km/h N -1,8 C 2,1 C 0,0 km/h
22.11.2020 19:00 0,9 C 78 % 1028,8 hPa 0,0 l/m 0,0 km/h N -2,6 C 0,9 C 0,0 km/h
22.11.2020 20:00 -0,3 C 80 % 1028,9 hPa 0,0 l/m 0,0 km/h N -3,3 C -0,3 C 0,0 km/h
22.11.2020 21:00 -1,0 C 81 % 1029,0 hPa 0,0 l/m 0,0 km/h N -3,8 C -1,0 C 0,0 km/h
22.11.2020 22:00 -1,3 C 82 % 1028,8 hPa 0,0 l/m 0,0 km/h N -3,9 C -1,3 C 0,0 km/h
22.11.2020 23:00 -0,5 C 83 % 1028,3 hPa 0,0 l/m 0,0 km/h N -3,1 C -0,5 C 0,0 km/h
Min-Datum _ 22.11.20 21.11.20 16.11.20 - 16.11.20 - 22.11.20 22.11.20 16.11.20
_ Min-Zeit 07:30 15:00 03:00 - 00:00 - 07:30 07:30 00:30
Minimum _ -5,6 C 56 % 1014,8 hPa - 0,0 km/h - -8,0 C -5,6 C 0,0 km/h
Max-Datum _ 17.11.20 16.11.20 21.11.20 19.11.20 19.11.20 - 18.11.20 17.11.20 20.11.20
_ Max-Zeit 13:15 03:30 09:15 20:00 21:45 - 14:00 13:15 00:45
Maximum _ 13,3 C 83 % 1037,8 hPa 1,0 l/m 11,1 km/h
N
- 7,8 C 13,3 C 32,2 km/h
N
Durchschnitt _ 5,2 C 77 % 1027,7 hPa #2,1 l/m 1,6 km/h N 1,5 C 5,1 C 6,5 km/h